Portada
METAR-TAF:

METAR-TAF

Aeroports :

El Oued, Algèria

latitud: 33-30-47N, longitud: 006-46-57E, altitud: 62 m

Observació

L'informe es va fer fa 43 minuts, a les 20:00 UTC
Vent 6 kt del Est
Temperatura 30°C
Humitat 14%
Pressió 1018 hPa
Visibilitat 10 km o més
sense núvols per sota de 1500 mi sense presència de cumulonimbus.

METAR: DAUO 252000Z 08006KT CAVOK 30/00 Q1018

Hora: 21:43 (20:43 UTC)

Pronòstic

L'informe es va fer fa 3 hores i 43 minuts, a les 17:00 UTC
Pronòstic vàlid del 25 a les 18 UTC al 26 a les 03 UTC
Vent 7 kt del Est
Visibilitat 10 km o més
Núvols disperses a una alçada de 4000 ft
Probabilitat 30% :
Temporalment
l' 25 a les 18 UTC al 25 a les 21 UTC
Visibilitat: 4000 m
Escasses núvols a una alçada de 3300 ft, Cumulonimbus.
calitja

TAF: DAUO 251700Z 2518/2603 08007KT 9999 SCT040 PROB30 TEMPO 2518/2521 4000 HZ FEW033CB

Observacions i pronòstics meteorològics de més de 4000 aeroports (METAR i TAF).

Les estacions disponibles són els punts grocs i vermells al mapa.

Posi el ratolí al punt desitjat per veure el nom de l'estació.

Feu clic per veure les observacions i els pronòstics meteorològics.

Per canviar el mapa: feu clic els botons verds amb una creu de color negre per apropar; al botó verd amb un guió per allunyar la imatge; o en les fletxes verdes per a mapes adjacents.


METAR-TAF: